AR-0134 weather

El Corcovado Airport
El Corcovado - Esquel, Chubut Province, Argentina

Public forecast

Using degrees Celsius for public forecast. Weather courtesy of forecast.io.

METAR (pilot weather report)

Closest report is Alto Palena Airport, 14.7 nm (27.3 km) WSW. Retrieved 2019/04/21 08:00 UTC (2 minutes ago):

SCAP 210800Z AUTO VRB01KT 9999 ////// 07/05 Q1024

TAF (pilot weather forecast)

Forecast is more than 12 hours old.

Closest forecast is Brigadier Antonio Parodi Airport, 40.5 nm (75.0 km) NNE. Retrieved 2019/04/15 06:04 UTC (6 days ago):

TAF SAVE 150500Z 1506/1606 27010KT 9999 SCT030 TX12/1518Z TNM01/1510Z BECMG 1518/1520 29010KT